createdAt,value
2018-10-06T00:02:05.703Z,9.70
2018-10-06T00:04:45.296Z,6.60
2018-10-06T00:07:22.492Z,7.67
2018-10-06T00:09:59.806Z,12.37
2018-10-06T00:12:36.596Z,8.53
2018-10-06T00:15:13.513Z,8.73
2018-10-06T00:17:50.788Z,8.50
2018-10-06T00:20:28.091Z,8.03
2018-10-06T00:23:05.622Z,8.30
2018-10-06T00:25:41.612Z,8.80
2018-10-06T00:28:19.108Z,8.53
2018-10-06T00:30:55.061Z,8.67
2018-10-06T00:33:32.617Z,7.93
2018-10-06T00:36:08.555Z,8.00
2018-10-06T00:38:46.921Z,8.53
2018-10-06T00:41:24.645Z,8.67
2018-10-06T00:44:00.250Z,9.03
2018-10-06T00:46:37.668Z,8.40
2018-10-06T00:49:15.254Z,7.03
2018-10-06T00:51:51.715Z,8.20
2018-10-06T00:54:28.260Z,8.60
2018-10-06T00:57:05.887Z,7.80
2018-10-06T00:59:41.776Z,8.27
2018-10-06T01:02:18.732Z,7.97
2018-10-06T01:04:55.623Z,8.57
2018-10-06T01:07:33.672Z,8.27
2018-10-06T01:10:10.077Z,7.60
2018-10-06T01:12:47.305Z,8.03
2018-10-06T01:15:23.272Z,10.57
2018-10-06T01:17:58.817Z,9.20
2018-10-06T01:20:37.750Z,12.10
2018-10-06T01:23:13.681Z,9.30
2018-10-06T01:25:49.269Z,10.13
2018-10-06T01:28:25.025Z,10.60
2018-10-06T01:31:01.407Z,8.27
2018-10-06T01:33:37.754Z,8.60
2018-10-06T01:36:14.201Z,7.80
2018-10-06T01:38:51.647Z,8.87
2018-10-06T01:41:28.411Z,9.03
2018-10-06T01:44:05.004Z,9.43
2018-10-06T01:46:41.378Z,9.93
2018-10-06T01:49:19.090Z,8.10
2018-10-06T01:51:58.338Z,9.03
2018-10-06T01:54:36.333Z,8.40
2018-10-06T01:57:13.170Z,7.53
2018-10-06T01:59:50.296Z,8.90
2018-10-06T02:02:26.927Z,8.50
2018-10-06T02:05:02.540Z,8.30
2018-10-06T02:07:38.797Z,8.13
2018-10-06T02:10:16.729Z,10.27
2018-10-06T02:12:54.622Z,9.83
2018-10-06T02:15:31.648Z,9.43
2018-10-06T02:18:09.731Z,10.27
2018-10-06T02:20:47.472Z,10.47
2018-10-06T02:23:24.525Z,11.27
2018-10-06T02:26:02.348Z,11.20
2018-10-06T02:28:37.989Z,11.50
2018-10-06T02:31:15.808Z,11.13
2018-10-06T02:33:51.905Z,12.90
2018-10-06T02:36:31.692Z,13.73
2018-10-06T02:39:12.121Z,13.33
2018-10-06T02:41:48.398Z,16.00
2018-10-06T02:44:26.712Z,16.13
2018-10-06T02:47:04.156Z,16.23
2018-10-06T02:49:41.187Z,18.33
2018-10-06T02:52:16.939Z,25.33
2018-10-06T02:54:52.804Z,25.30
2018-10-06T02:57:29.547Z,26.60
2018-10-06T03:00:06.624Z,32.60
2018-10-06T03:02:45.581Z,33.40
2018-10-06T03:05:22.583Z,38.07
2018-10-06T03:08:01.273Z,36.57
2018-10-06T03:10:39.700Z,36.43
2018-10-06T03:13:15.305Z,33.13
2018-10-06T03:15:51.524Z,33.07
2018-10-06T03:18:29.417Z,28.53
2018-10-06T03:21:06.489Z,22.77
2018-10-06T03:23:43.142Z,21.73
2018-10-06T03:26:19.518Z,19.53
2018-10-06T03:28:57.616Z,18.33
2018-10-06T03:31:33.357Z,14.87
2018-10-06T03:34:08.385Z,12.23
2018-10-06T03:36:44.173Z,11.20
2018-10-06T03:39:19.796Z,11.53
2018-10-06T03:41:55.493Z,12.43
2018-10-06T03:44:30.953Z,12.03
2018-10-06T03:47:06.782Z,11.33
2018-10-06T03:49:42.236Z,12.43
2018-10-06T03:52:17.686Z,12.03
2018-10-06T03:54:53.361Z,12.50
2018-10-06T03:57:28.773Z,11.53
2018-10-06T04:00:04.474Z,10.83
2018-10-06T04:02:40.061Z,10.20
2018-10-06T04:05:16.210Z,10.90
2018-10-06T04:07:51.917Z,11.00
2018-10-06T04:10:27.570Z,11.93
2018-10-06T04:13:02.961Z,11.00
2018-10-06T04:15:38.511Z,9.57
2018-10-06T04:18:14.365Z,9.50
2018-10-06T04:20:50.346Z,10.90
2018-10-06T04:23:25.504Z,8.97
2018-10-06T04:26:00.400Z,9.40
2018-10-06T04:28:36.189Z,9.63
2018-10-06T04:31:11.991Z,9.40
2018-10-06T04:33:47.969Z,9.03
2018-10-06T04:36:25.159Z,8.60
2018-10-06T04:39:02.800Z,8.50
2018-10-06T04:41:39.698Z,9.33
2018-10-06T04:44:15.365Z,7.43
2018-10-06T04:46:52.069Z,8.37
2018-10-06T04:49:27.476Z,9.80
2018-10-06T04:52:02.973Z,11.33
2018-10-06T04:54:38.554Z,9.40
2018-10-06T04:57:14.345Z,10.30
2018-10-06T04:59:49.997Z,10.40
2018-10-06T05:02:25.376Z,10.10
2018-10-06T05:05:00.968Z,8.90
2018-10-06T05:07:36.900Z,11.60
2018-10-06T05:10:12.685Z,10.80
2018-10-06T05:12:47.719Z,10.13
2018-10-06T05:15:23.338Z,8.60
2018-10-06T05:17:59.197Z,10.77
2018-10-06T05:20:34.856Z,10.60
2018-10-06T05:23:10.128Z,9.10
2018-10-06T05:25:45.981Z,9.30
2018-10-06T05:28:21.637Z,9.67
2018-10-06T05:30:56.393Z,9.87
2018-10-06T05:33:32.145Z,9.50
2018-10-06T05:36:07.798Z,9.67
2018-10-06T05:38:43.789Z,8.97
2018-10-06T05:41:19.233Z,10.20
2018-10-06T05:43:55.100Z,9.13
2018-10-06T05:46:31.002Z,8.70
2018-10-06T05:49:06.184Z,8.70
2018-10-06T05:51:41.084Z,8.27
2018-10-06T05:54:16.708Z,8.00
2018-10-06T05:56:51.945Z,8.63
2018-10-06T05:59:27.674Z,8.87
2018-10-06T06:02:03.410Z,9.00
2018-10-06T06:04:39.151Z,9.03
2018-10-06T06:07:14.543Z,9.20
2018-10-06T06:09:50.189Z,8.50
2018-10-06T06:12:25.788Z,8.90
2018-10-06T06:15:01.699Z,8.13
2018-10-06T06:17:37.317Z,8.00
2018-10-06T06:20:12.661Z,7.43
2018-10-06T06:22:48.431Z,8.47
2018-10-06T06:25:24.519Z,7.83
2018-10-06T06:27:59.532Z,7.63
2018-10-06T06:30:35.458Z,8.50
2018-10-06T06:33:11.044Z,8.40
2018-10-06T06:35:47.570Z,7.57
2018-10-06T06:38:23.036Z,8.20
2018-10-06T06:40:58.844Z,8.80
2018-10-06T06:43:34.834Z,9.00
2018-10-06T06:46:10.163Z,9.43
2018-10-06T06:48:45.725Z,9.20
2018-10-06T06:51:21.196Z,9.37
2018-10-06T06:53:56.824Z,9.60
2018-10-06T06:56:32.320Z,8.77
2018-10-06T06:59:07.728Z,11.23
2018-10-06T07:01:43.569Z,8.10
2018-10-06T07:04:20.802Z,8.77
2018-10-06T07:06:55.770Z,8.83
2018-10-06T07:09:33.136Z,9.40
2018-10-06T07:12:10.260Z,9.70
2018-10-06T07:14:49.241Z,9.33
2018-10-06T07:17:26.516Z,10.63
2018-10-06T07:20:03.609Z,11.53
2018-10-06T07:22:44.336Z,12.27
2018-10-06T07:25:22.386Z,10.60
2018-10-06T07:27:57.364Z,11.03
2018-10-06T07:30:32.944Z,10.70
2018-10-06T07:33:08.682Z,11.60
2018-10-06T07:35:47.488Z,11.30
2018-10-06T07:38:25.264Z,10.40
2018-10-06T07:41:01.457Z,10.20
2018-10-06T07:43:37.152Z,10.70
2018-10-06T07:46:12.468Z,11.23
2018-10-06T07:48:48.284Z,10.17
2018-10-06T07:51:23.628Z,9.40
2018-10-06T07:53:59.281Z,9.37
2018-10-06T07:56:35.140Z,9.37
2018-10-06T07:59:10.837Z,17.67
2018-10-06T08:01:46.439Z,38.20
2018-10-06T08:04:21.516Z,16.03
2018-10-06T08:06:57.145Z,12.50
2018-10-06T08:09:32.764Z,10.97
2018-10-06T08:12:08.611Z,12.53
2018-10-06T08:14:44.052Z,11.13
2018-10-06T08:17:19.652Z,10.70
2018-10-06T08:19:54.560Z,11.33
2018-10-06T08:22:30.102Z,12.50
2018-10-06T08:25:05.613Z,10.70
2018-10-06T08:27:41.089Z,11.43
2018-10-06T08:30:17.002Z,9.93
2018-10-06T08:32:52.405Z,11.03
2018-10-06T08:35:28.147Z,11.33
2018-10-06T08:38:03.457Z,12.57
2018-10-06T08:40:39.121Z,10.90
2018-10-06T08:43:14.317Z,11.10
2018-10-06T08:45:49.634Z,11.90
2018-10-06T08:48:25.233Z,9.80
2018-10-06T08:51:01.138Z,10.73
2018-10-06T08:53:36.524Z,11.07
2018-10-06T08:56:12.866Z,9.63
2018-10-06T08:58:47.796Z,10.20
2018-10-06T09:01:23.972Z,10.77
2018-10-06T09:03:59.260Z,10.40
2018-10-06T09:06:34.840Z,11.03
2018-10-06T09:09:10.402Z,10.90
2018-10-06T09:11:46.102Z,12.77
2018-10-06T09:14:21.952Z,9.73
2018-10-06T09:16:57.605Z,11.20
2018-10-06T09:19:33.052Z,10.57
2018-10-06T09:22:08.125Z,10.40
2018-10-06T09:24:43.852Z,10.90
2018-10-06T09:27:18.708Z,10.00
2018-10-06T09:29:54.389Z,11.27
2018-10-06T09:32:30.490Z,11.70
2018-10-06T09:35:05.544Z,10.00
2018-10-06T09:37:41.986Z,11.00
2018-10-06T09:40:17.899Z,10.07
2018-10-06T09:42:53.500Z,10.93
2018-10-06T09:45:29.470Z,10.50
2018-10-06T09:48:04.800Z,10.83
2018-10-06T09:50:40.076Z,11.90
2018-10-06T09:53:15.876Z,10.40
2018-10-06T09:55:51.743Z,11.67
2018-10-06T09:58:27.372Z,10.50
2018-10-06T10:01:08.017Z,11.00
2018-10-06T10:03:48.377Z,10.10
2018-10-06T10:06:23.777Z,9.33
2018-10-06T10:08:59.424Z,10.27
2018-10-06T10:11:34.818Z,10.50
2018-10-06T10:14:10.913Z,7.70
2018-10-06T10:16:46.166Z,7.97
2018-10-06T10:19:21.892Z,7.27
2018-10-06T10:21:57.633Z,11.73
2018-10-06T10:24:33.256Z,8.43
2018-10-06T10:27:09.080Z,5.83
2018-10-06T10:29:44.786Z,7.80
2018-10-06T10:32:20.445Z,9.00
2018-10-06T10:34:55.900Z,8.30
2018-10-06T10:37:31.809Z,8.40
2018-10-06T10:40:07.389Z,7.50
2018-10-06T10:42:42.820Z,9.00
2018-10-06T10:45:18.549Z,8.53
2018-10-06T10:47:54.123Z,8.67
2018-10-06T10:50:29.613Z,8.43
2018-10-06T10:53:05.232Z,7.70
2018-10-06T10:55:40.910Z,6.93
2018-10-06T10:58:16.636Z,8.80
2018-10-06T11:00:52.187Z,8.97
2018-10-06T11:03:28.036Z,7.80
2018-10-06T11:06:03.532Z,9.40
2018-10-06T11:08:39.280Z,8.17
2018-10-06T11:11:14.824Z,6.93
2018-10-06T11:13:50.356Z,6.80
2018-10-06T11:16:25.916Z,9.43
2018-10-06T11:19:01.596Z,9.00
2018-10-06T11:21:37.100Z,7.20
2018-10-06T11:24:13.058Z,8.03
2018-10-06T11:26:48.485Z,7.77
2018-10-06T11:29:23.755Z,7.53
2018-10-06T11:31:59.648Z,10.37
2018-10-06T11:34:35.342Z,7.83
2018-10-06T11:37:10.711Z,9.47
2018-10-06T11:39:46.321Z,7.30
2018-10-06T11:42:21.991Z,7.90
2018-10-06T11:44:57.409Z,8.00
2018-10-06T11:47:33.263Z,8.43
2018-10-06T11:50:08.888Z,8.40
2018-10-06T11:52:44.029Z,9.63
2018-10-06T11:55:19.640Z,8.47
2018-10-06T11:57:55.268Z,7.93
2018-10-06T12:00:30.738Z,8.30
2018-10-06T12:03:06.360Z,7.67
2018-10-06T12:05:41.855Z,7.90
2018-10-06T12:08:17.649Z,7.23
2018-10-06T12:10:53.115Z,8.47
2018-10-06T12:13:28.617Z,7.43
2018-10-06T12:16:04.404Z,7.47
2018-10-06T12:18:39.720Z,6.50
2018-10-06T12:21:15.597Z,6.53
2018-10-06T12:23:52.098Z,6.30
2018-10-06T12:26:28.196Z,5.50
2018-10-06T12:29:03.580Z,5.10
2018-10-06T12:31:39.291Z,8.97
2018-10-06T12:34:14.734Z,5.17
2018-10-06T12:36:50.532Z,5.37
2018-10-06T12:39:26.261Z,6.77
2018-10-06T12:42:01.947Z,5.70
2018-10-06T12:44:38.066Z,5.07
2018-10-06T12:47:13.199Z,4.30
2018-10-06T12:49:48.881Z,5.33
2018-10-06T12:52:24.319Z,4.90
2018-10-06T12:55:00.053Z,4.90
2018-10-06T12:57:35.393Z,5.47
2018-10-06T13:00:11.273Z,4.87
2018-10-06T13:02:46.732Z,3.80
2018-10-06T13:05:22.342Z,5.60
2018-10-06T13:07:57.516Z,5.20
2018-10-06T13:10:33.632Z,3.20
2018-10-06T13:13:08.885Z,4.10
2018-10-06T13:15:44.521Z,2.90
2018-10-06T13:18:20.177Z,3.57
2018-10-06T13:20:55.645Z,3.43
2018-10-06T13:23:31.248Z,2.90
2018-10-06T13:26:06.794Z,3.43
2018-10-06T13:28:42.365Z,2.70
2018-10-06T13:31:17.869Z,3.17
2018-10-06T13:33:53.437Z,4.20
2018-10-06T13:36:29.164Z,3.90
2018-10-06T13:39:05.500Z,2.83
2018-10-06T13:41:41.687Z,3.37
2018-10-06T13:44:16.867Z,3.43
2018-10-06T13:46:52.394Z,3.23
2018-10-06T13:49:27.944Z,4.37
2018-10-06T13:52:03.467Z,3.07
2018-10-06T13:54:38.496Z,4.40
2018-10-06T13:57:14.116Z,3.30
2018-10-06T13:59:49.529Z,2.37
2018-10-06T14:02:25.238Z,2.40
2018-10-06T14:05:00.694Z,2.97
2018-10-06T14:07:36.237Z,3.07
2018-10-06T14:10:11.337Z,3.87
2018-10-06T14:12:47.358Z,4.80
2018-10-06T14:15:23.141Z,5.77
2018-10-06T14:17:58.052Z,2.97
2018-10-06T14:20:33.950Z,3.80
2018-10-06T14:23:09.488Z,7.43
2018-10-06T14:25:45.159Z,3.00
2018-10-06T14:28:20.805Z,3.50
2018-10-06T14:30:56.468Z,3.90
2018-10-06T14:33:31.732Z,4.07
2018-10-06T14:36:07.042Z,3.00
2018-10-06T14:38:42.869Z,3.20
2018-10-06T14:41:19.042Z,3.30
2018-10-06T14:43:54.808Z,3.97
2018-10-06T14:46:30.624Z,3.10
2018-10-06T14:49:06.313Z,3.27
2018-10-06T14:51:41.925Z,3.73
2018-10-06T14:54:17.449Z,4.23
2018-10-06T14:56:53.272Z,4.13
2018-10-06T14:59:28.681Z,5.40
2018-10-06T15:02:04.489Z,3.87
2018-10-06T15:04:40.223Z,4.63
2018-10-06T15:07:15.850Z,3.40
2018-10-06T15:09:51.280Z,3.67
2018-10-06T15:12:27.302Z,3.97
2018-10-06T15:15:03.289Z,5.07
2018-10-06T15:17:38.593Z,3.90
2018-10-06T15:20:13.881Z,4.07
2018-10-06T15:22:49.540Z,4.10
2018-10-06T15:25:25.246Z,4.60
2018-10-06T15:28:01.283Z,4.43
2018-10-06T15:30:36.926Z,4.50
2018-10-06T15:33:12.727Z,4.97
2018-10-06T15:35:47.980Z,4.03
2018-10-06T15:38:23.640Z,3.40
2018-10-06T15:40:59.264Z,4.10
2018-10-06T15:43:34.625Z,3.67
2018-10-06T15:46:10.432Z,4.83
2018-10-06T15:48:45.838Z,5.03
2018-10-06T15:51:21.373Z,5.47
2018-10-06T15:53:57.121Z,5.60
2018-10-06T15:56:32.811Z,4.00
2018-10-06T15:59:08.849Z,4.90
2018-10-06T16:01:44.328Z,4.57
2018-10-06T16:04:20.064Z,6.53
2018-10-06T16:06:55.381Z,4.50
2018-10-06T16:09:31.290Z,5.17
2018-10-06T16:12:06.596Z,4.23
2018-10-06T16:14:42.140Z,5.50
2018-10-06T16:17:17.784Z,5.20
2018-10-06T16:19:53.404Z,5.13
2018-10-06T16:22:28.723Z,4.80
2018-10-06T16:25:04.582Z,6.10
2018-10-06T16:27:40.214Z,5.13
2018-10-06T16:30:16.109Z,5.40
2018-10-06T16:32:51.522Z,8.10
2018-10-06T16:35:26.925Z,6.10
2018-10-06T16:38:03.183Z,4.63
2018-10-06T16:40:38.603Z,6.10
2018-10-06T16:43:14.170Z,8.33
2018-10-06T16:45:49.855Z,5.33
2018-10-06T16:48:25.415Z,5.30
2018-10-06T16:51:00.881Z,4.60
2018-10-06T16:53:36.688Z,5.60
2018-10-06T16:56:11.887Z,4.97
2018-10-06T16:58:47.643Z,5.17
2018-10-06T17:01:23.595Z,5.37
2018-10-06T17:03:58.677Z,7.37
2018-10-06T17:06:34.496Z,5.20
2018-10-06T17:09:11.432Z,6.67
2018-10-06T17:11:46.402Z,5.50
2018-10-06T17:14:22.108Z,5.40
2018-10-06T17:16:57.633Z,6.00
2018-10-06T17:19:33.211Z,7.87
2018-10-06T17:22:09.472Z,4.67
2018-10-06T17:24:45.106Z,6.30
2018-10-06T17:27:21.040Z,4.67
2018-10-06T17:29:56.202Z,5.60
2018-10-06T17:32:32.016Z,6.23
2018-10-06T17:35:07.209Z,5.30
2018-10-06T17:37:43.110Z,6.27
2018-10-06T17:40:18.540Z,6.17
2018-10-06T17:42:54.017Z,6.00
2018-10-06T17:45:29.831Z,5.43
2018-10-06T17:48:05.471Z,5.17
2018-10-06T17:50:41.323Z,5.50
2018-10-06T17:53:16.361Z,4.73
2018-10-06T17:55:51.836Z,4.90
2018-10-06T17:58:27.560Z,5.40
2018-10-06T18:01:02.773Z,6.00
2018-10-06T18:03:38.400Z,4.93
2018-10-06T18:06:14.027Z,5.30
2018-10-06T18:08:49.267Z,6.00
2018-10-06T18:11:24.815Z,8.87
2018-10-06T18:14:00.391Z,5.40
2018-10-06T18:16:36.261Z,5.90
2018-10-06T18:19:11.710Z,5.10
2018-10-06T18:21:47.551Z,4.63
2018-10-06T18:24:23.011Z,6.50
2018-10-06T18:26:58.712Z,4.83
2018-10-06T18:29:34.523Z,5.03
2018-10-06T18:32:10.188Z,4.70
2018-10-06T18:34:45.356Z,4.70
2018-10-06T18:37:21.361Z,4.80
2018-10-06T18:39:56.424Z,6.30
2018-10-06T18:42:32.048Z,5.77
2018-10-06T18:45:07.790Z,5.50
2018-10-06T18:47:45.718Z,3.90
2018-10-06T18:50:21.721Z,4.17
2018-10-06T18:53:00.256Z,3.73
2018-10-06T18:55:37.333Z,4.37
2018-10-06T18:58:18.153Z,4.47
2018-10-06T19:00:53.780Z,9.97
2018-10-06T19:03:29.655Z,4.80
2018-10-06T19:06:06.780Z,3.93
2018-10-06T19:08:45.232Z,4.00
2018-10-06T19:11:22.228Z,4.23
2018-10-06T19:13:59.863Z,4.30
2018-10-06T19:16:40.836Z,3.70
2018-10-06T19:19:18.785Z,4.43
2018-10-06T19:21:57.768Z,4.43
2018-10-06T19:24:33.249Z,4.50
2018-10-06T19:27:11.464Z,6.40
2018-10-06T19:29:46.688Z,4.70
2018-10-06T19:32:22.317Z,5.20
2018-10-06T19:35:00.205Z,5.10
2018-10-06T19:37:35.472Z,5.10
2018-10-06T19:40:11.618Z,5.63
2018-10-06T19:42:48.477Z,8.37
2018-10-06T19:45:24.290Z,6.30
2018-10-06T19:48:02.650Z,7.60
2018-10-06T19:50:38.596Z,10.30
2018-10-06T19:53:15.277Z,7.40
2018-10-06T19:55:53.286Z,9.43
2018-10-06T19:58:30.519Z,6.43
2018-10-06T20:01:08.436Z,8.73
2018-10-06T20:03:45.853Z,8.87
2018-10-06T20:06:23.057Z,9.93
2018-10-06T20:08:59.828Z,10.67
2018-10-06T20:11:38.548Z,9.53
2018-10-06T20:14:19.389Z,7.30
2018-10-06T20:16:56.401Z,7.40
2018-10-06T20:19:34.261Z,7.33
2018-10-06T20:22:13.733Z,7.07
2018-10-06T20:24:49.873Z,6.80
2018-10-06T20:27:27.814Z,6.90
2018-10-06T20:30:06.322Z,8.57
2018-10-06T20:32:44.986Z,8.23
2018-10-06T20:35:21.200Z,6.77
2018-10-06T20:37:59.841Z,5.30
2018-10-06T20:40:36.259Z,7.17
2018-10-06T20:43:12.379Z,5.87
2018-10-06T20:45:49.177Z,6.50
2018-10-06T20:48:25.855Z,6.33
2018-10-06T20:51:03.284Z,7.30
2018-10-06T20:53:39.863Z,6.30
2018-10-06T20:56:15.749Z,6.20
2018-10-06T20:58:53.438Z,6.77
2018-10-06T21:01:30.293Z,5.67
2018-10-06T21:04:08.249Z,6.10
2018-10-06T21:06:45.206Z,6.70
2018-10-06T21:09:21.265Z,7.03
2018-10-06T21:11:59.339Z,7.17
2018-10-06T21:14:36.756Z,7.30
2018-10-06T21:17:14.466Z,8.20
2018-10-06T21:19:51.645Z,8.63
2018-10-06T21:22:29.127Z,10.27
2018-10-06T21:25:04.953Z,12.53
2018-10-06T21:27:42.685Z,12.50
2018-10-06T21:30:18.486Z,13.40
2018-10-06T21:32:54.516Z,15.57
2018-10-06T21:35:32.325Z,13.57
2018-10-06T21:38:08.089Z,10.53
2018-10-06T21:40:44.334Z,10.53
2018-10-06T21:43:20.261Z,12.77
2018-10-06T21:45:57.178Z,7.90
2018-10-06T21:48:34.232Z,7.43
2018-10-06T21:51:11.132Z,8.23
2018-10-06T21:53:46.626Z,14.27
2018-10-06T21:56:22.475Z,10.90
2018-10-06T21:58:59.280Z,7.07
2018-10-06T22:01:37.308Z,8.03
2018-10-06T22:04:15.413Z,7.90
2018-10-06T22:06:51.878Z,9.17
2018-10-06T22:09:28.222Z,9.20
2018-10-06T22:12:05.745Z,8.80
2018-10-06T22:14:41.425Z,9.70
2018-10-06T22:17:19.689Z,10.30
2018-10-06T22:19:58.753Z,10.10
2018-10-06T22:22:34.988Z,9.93
2018-10-06T22:25:11.301Z,12.03
2018-10-06T22:27:46.666Z,9.40
2018-10-06T22:30:23.389Z,9.20
2018-10-06T22:32:59.487Z,10.37
2018-10-06T22:35:36.761Z,9.60
2018-10-06T22:38:14.029Z,9.40
2018-10-06T22:40:50.140Z,9.10
2018-10-06T22:43:26.809Z,9.70
2018-10-06T22:46:04.268Z,8.23
2018-10-06T22:48:43.100Z,8.73
2018-10-06T22:51:19.791Z,9.03
2018-10-06T22:53:57.671Z,8.80
2018-10-06T22:56:34.228Z,7.60
2018-10-06T22:59:12.090Z,7.87
2018-10-06T23:01:48.228Z,8.87
2018-10-06T23:04:25.540Z,8.67
2018-10-06T23:07:03.020Z,8.80
2018-10-06T23:09:38.346Z,8.33
2018-10-06T23:12:14.280Z,8.90
2018-10-06T23:14:52.530Z,8.73
2018-10-06T23:17:29.087Z,8.10
2018-10-06T23:20:07.396Z,9.13
2018-10-06T23:22:46.711Z,8.30
2018-10-06T23:25:24.294Z,8.50
2018-10-06T23:28:03.052Z,8.73
2018-10-06T23:30:40.163Z,10.47
2018-10-06T23:33:19.463Z,11.00
2018-10-06T23:35:56.202Z,8.97
2018-10-06T23:38:33.304Z,8.10
2018-10-06T23:41:09.352Z,9.10
2018-10-06T23:43:45.321Z,9.40
2018-10-06T23:46:21.888Z,7.40
2018-10-06T23:48:59.317Z,7.90
2018-10-06T23:51:36.752Z,7.57
2018-10-06T23:54:14.695Z,7.60
2018-10-06T23:56:51.270Z,8.70
2018-10-06T23:59:28.891Z,7.40
